Time;durP1;ratioP1;P1;durP2;ratioP2;P2;SDS_P1;SDS_P2;PMS_P1;PMS_P2;Temp;Humidity;BMP_temperature;BMP_pressure;BME280_temperature;BME280_humidity;BME280_pressure;Samples;Min_cycle;Max_cycle;Signal;HPM_P1;HPM_P2
2021/06/02 00:02:17;;;;;;;5.07;3.13;;;18.10;62.70;;;;;;5096310;28;20549;-68
2021/06/02 00:04:44;;;;;;;7.38;3.17;;;;;;;;;;5096264;28;20020;-68
2021/06/02 00:07:11;;;;;;;6.70;3.17;;;17.90;62.40;;;;;;5096183;28;20361;-69
2021/06/02 00:09:37;;;;;;;4.30;3.40;;;17.90;63.10;;;;;;5096193;28;20020;-69
2021/06/02 00:12:06;;;;;;;5.97;3.80;;;17.90;63.70;;;;;;5096498;28;20020;-69
2021/06/02 00:14:32;;;;;;;5.82;3.17;;;17.90;63.70;;;;;;5096046;28;20464;-68
2021/06/02 00:16:59;;;;;;;4.85;3.72;;;17.80;63.50;;;;;;5096217;28;20047;-69
2021/06/02 00:19:25;;;;;;;6.72;4.35;;;17.80;63.40;;;;;;5095875;28;20434;-69
2021/06/02 00:21:52;;;;;;;5.43;3.85;;;17.80;63.80;;;;;;5095960;28;20537;-68
2021/06/02 00:24:18;;;;;;;6.22;3.70;;;17.80;64.00;;;;;;5096122;28;20093;-68
2021/06/02 00:26:44;;;;;;;7.00;3.70;;;17.70;64.00;;;;;;5095852;28;20480;-69
2021/06/02 00:29:12;;;;;;;7.05;4.00;;;17.70;64.30;;;;;;5095845;28;20083;-69
2021/06/02 00:31:44;;;;;;;8.07;3.80;;;17.70;64.50;;;;;;5095764;28;20095;-68
2021/06/02 00:34:10;;;;;;;5.32;3.70;;;17.70;64.60;;;;;;5095463;28;20024;-68
2021/06/02 00:36:40;;;;;;;7.35;3.65;;;17.70;64.80;;;;;;5077599;28;20422;-69
2021/06/02 00:39:07;;;;;;;6.65;3.75;;;17.70;64.60;;;;;;5095653;28;20036;-69
2021/06/02 00:41:35;;;;;;;5.20;3.58;;;17.70;64.50;;;;;;5096320;28;20032;-68
2021/06/02 00:44:04;;;;;;;7.57;3.60;;;17.80;64.50;;;;;;5095553;28;20053;-68
2021/06/02 00:46:34;;;;;;;6.80;3.90;;;17.70;64.10;;;;;;5095949;28;20099;-68
2021/06/02 00:49:00;;;;;;;6.05;4.00;;;17.70;63.90;;;;;;5095548;28;20028;-69
2021/06/02 00:51:26;;;;;;;7.10;3.92;;;17.70;63.80;;;;;;5095684;28;20032;-69
2021/06/02 00:53:54;;;;;;;4.60;3.45;;;17.60;64.00;;;;;;5095398;28;20032;-69
2021/06/02 00:56:28;;;;;;;6.43;3.45;;;17.70;64.50;;;;;;5095679;28;20102;-68
2021/06/02 00:58:58;;;;;;;7.72;3.90;;;17.60;64.80;;;;;;5092641;28;20039;-69
2021/06/02 01:01:25;;;;;;;6.65;4.03;;;17.60;65.10;;;;;;5092534;28;20039;-69
2021/06/02 01:03:51;;;;;;;7.53;3.63;;;17.50;65.20;;;;;;5092683;28;20115;-69
2021/06/02 01:06:18;;;;;;;8.75;3.53;;;17.50;65.00;;;;;;5094973;28;20544;-68
2021/06/02 01:08:45;;;;;;;5.32;3.70;;;17.50;64.80;;;;;;5095207;28;20059;-69
2021/06/02 01:11:11;;;;;;;5.05;3.38;;;17.50;65.20;;;;;;5095052;28;20065;-68
2021/06/02 01:13:42;;;;;;;4.93;3.92;;;17.50;65.20;;;;;;5094722;28;20024;-69
2021/06/02 01:16:08;;;;;;;4.45;3.42;;;17.50;65.30;;;;;;5095233;28;20024;-69
2021/06/02 01:18:35;;;;;;;7.80;3.70;;;17.40;65.60;;;;;;5094609;28;20030;-68
2021/06/02 01:21:02;;;;;;;5.65;3.80;;;17.40;65.80;;;;;;5094278;28;20481;-68
2021/06/02 01:23:29;;;;;;;7.22;3.40;;;17.40;65.60;;;;;;5094633;28;20016;-69
2021/06/02 01:25:55;;;;;;;6.95;3.70;;;17.40;65.40;;;;;;5094586;28;20103;-68
2021/06/02 01:28:20;;;;;;;5.18;3.50;;;17.40;65.60;;;;;;5094290;28;20016;-68
2021/06/02 01:30:47;;;;;;;3.97;3.20;;;17.40;65.60;;;;;;5094627;28;20372;-69
2021/06/02 01:33:49;;;;;;;7.40;3.40;;;17.40;65.60;;;;;;5076358;28;20035;-68
2021/06/02 01:36:38;;;;;;;3.50;2.90;;;17.30;66.10;;;;;;5094365;28;20024;-69
2021/06/02 01:39:04;;;;;;;4.45;2.83;;;17.20;66.40;;;;;;5093967;28;20032;-69
2021/06/02 01:41:40;;;;;;;4.85;3.22;;;17.20;66.20;;;;;;5094451;28;20061;-69
2021/06/02 01:44:24;;;;;;;3.95;3.15;;;17.20;66.30;;;;;;5094249;28;20024;-69
2021/06/02 01:47:23;;;;;;;3.53;2.85;;;17.20;66.30;;;;;;5094347;28;20028;-68
2021/06/02 01:50:05;;;;;;;3.90;3.17;;;17.20;66.10;;;;;;5094371;28;20020;-68
2021/06/02 01:52:37;;;;;;;;;;;17.20;66.10;;;;;;5094831;28;20082;-68
2021/06/02 01:55:17;;;;;;;5.57;3.22;;;17.20;65.70;;;;;;5094403;28;19904;-69
2021/06/02 01:57:59;;;;;;;5.15;3.50;;;17.20;66.10;;;;;;5094013;28;20024;-69
2021/06/02 02:00:49;;;;;;;5.55;3.47;;;17.20;66.30;;;;;;5075735;28;20047;-69
2021/06/02 02:03:33;;;;;;;4.88;3.45;;;17.20;66.60;;;;;;5094213;28;20055;-68
2021/06/02 02:06:29;;;;;;;9.13;3.33;;;17.20;66.80;;;;;;5094081;28;20419;-68
2021/06/02 02:09:05;;;;;;;5.50;3.17;;;17.10;66.80;;;;;;5094112;28;20024;-69
2021/06/02 02:11:40;;;;;;;4.68;3.25;;;17.10;66.80;;;;;;5093591;28;20032;-68
2021/06/02 02:14:12;;;;;;;9.57;3.22;;;17.10;66.90;;;;;;5094195;28;20020;-68
2021/06/02 02:16:51;;;;;;;5.10;3.50;;;17.10;67.10;;;;;;5094215;28;20362;-69
2021/06/02 02:19:38;;;;;;;9.38;3.45;;;17.10;67.80;;;;;;5093525;28;20455;-69
2021/06/02 02:22:40;;;;;;;3.53;3.22;;;17.10;67.10;;;;;;5093629;28;20024;-69
2021/06/02 02:25:23;;;;;;;6.78;3.42;;;17.10;67.30;;;;;;5093784;28;20024;-68
2021/06/02 02:27:53;;;;;;;6.68;3.33;;;17.10;66.90;;;;;;5093531;28;20050;-70
2021/06/02 02:30:48;;;;;;;8.18;3.42;;;17.10;66.60;;;;;;5075280;28;20484;-68
2021/06/02 02:33:25;;;;;;;4.55;3.58;;;17.00;66.50;;;;;;5055326;28;20388;-68
2021/06/02 02:36:00;;;;;;;9.00;3.63;;;16.90;66.00;;;;;;5093584;28;20107;-69
2021/06/02 02:38:49;;;;;;;4.90;3.30;;;16.90;66.30;;;;;;5093490;28;20038;-69
2021/06/02 02:41:40;;;;;;;4.75;3.15;;;16.80;66.60;;;;;;5093387;28;20026;-69
2021/06/02 02:44:24;;;;;;;7.43;3.25;;;16.70;66.30;;;;;;5093742;28;20061;-69
2021/06/02 02:47:26;;;;;;;5.55;3.42;;;16.70;66.00;;;;;;5093490;28;20489;-69
2021/06/02 02:50:10;;;;;;;8.10;3.63;;;16.60;65.70;;;;;;5067573;28;20032;-68
2021/06/02 02:52:54;;;;;;;3.70;3.13;;;16.50;66.00;;;;;;5093337;28;20481;-69
2021/06/02 02:55:26;;;;;;;7.63;3.70;;;16.40;66.40;;;;;;5093583;28;20099;-68
2021/06/02 02:58:25;;;;;;;3.63;3.25;;;16.30;66.60;;;;;;5093375;28;20454;-69
2021/06/02 03:01:04;;;;;;;7.57;3.33;;;16.30;66.70;;;;;;5078821;28;20093;-69
2021/06/02 03:03:34;;;;;;;7.88;3.65;;;16.30;66.80;;;;;;5092914;28;20031;-68
2021/06/02 03:06:15;;;;;;;4.50;3.50;;;16.30;66.90;;;;;;5093191;28;20024;-68
2021/06/02 03:08:52;;;;;;;5.20;3.70;;;16.20;66.90;;;;;;5092865;28;20032;-68
2021/06/02 03:11:44;;;;;;;7.70;3.85;;;16.20;67.00;;;;;;5093241;28;20024;-68
2021/06/02 03:14:16;;;;;;;7.13;3.87;;;16.20;67.30;;;;;;5093218;28;20028;-68
2021/06/02 03:16:43;;;;;;;;;;;16.20;67.30;;;;;;5093622;28;20020;-69
2021/06/02 03:19:14;;;;;;;6.25;3.30;;;16.20;67.10;;;;;;5092823;28;19912;-70
2021/06/02 03:22:17;;;;;;;4.07;2.97;;;16.20;66.80;;;;;;5093948;28;20031;-68
2021/06/02 03:25:02;;;;;;;4.30;3.65;;;16.20;66.60;;;;;;5097270;28;20022;-68
2021/06/02 03:27:43;;;;;;;5.97;4.13;;;16.10;67.10;;;;;;5096923;28;20031;-69
2021/06/02 03:30:34;;;;;;;7.72;3.67;;;16.20;67.50;;;;;;5096728;28;20589;-68
2021/06/02 03:33:25;;;;;;;5.97;3.50;;;16.20;67.50;;;;;;5097048;28;20459;-69
2021/06/02 03:36:00;;;;;;;10.23;3.60;;;16.20;67.50;;;;;;5097227;28;20032;-68
2021/06/02 03:38:49;;;;;;;4.95;4.00;;;16.20;67.60;;;;;;5096873;28;20024;-69
2021/06/02 03:41:21;;;;;;;6.22;3.70;;;16.20;67.90;;;;;;5096951;28;20101;-68
2021/06/02 03:43:50;;;;;;;5.85;3.80;;;16.20;67.90;;;;;;5096867;28;20012;-69
2021/06/02 03:46:53;;;;;;;9.20;4.10;;;16.20;67.80;;;;;;5096770;28;20080;-68
2021/06/02 03:49:44;;;;;;;;;;;16.20;67.90;;;;;;5078998;28;20085;-68
2021/06/02 03:52:23;;;;;;;7.28;4.05;;;16.10;67.80;;;;;;5096551;28;19908;-70
2021/06/02 03:54:59;;;;;;;8.82;3.80;;;16.20;68.00;;;;;;5096635;28;20031;-68
2021/06/02 03:57:34;;;;;;;11.18;4.40;;;16.10;68.10;;;;;;5096386;28;20039;-68
2021/06/02 04:00:12;;;;;;;12.82;4.10;;;16.10;68.20;;;;;;5096222;28;20038;-68
2021/06/02 04:03:05;;;;;;;6.43;3.47;;;16.20;68.40;;;;;;5096714;28;20028;-67
2021/06/02 04:05:52;;;;;;;6.68;3.92;;;16.20;68.40;;;;;;5096560;28;20051;-68
2021/06/02 04:08:38;;;;;;;6.35;3.63;;;16.20;68.40;;;;;;5096208;28;20028;-70
2021/06/02 04:11:09;;;;;;;6.10;3.83;;;16.20;68.20;;;;;;5096318;28;20124;-68
2021/06/02 04:13:53;;;;;;;5.20;3.70;;;16.20;68.20;;;;;;5096298;28;20020;-67
2021/06/02 04:16:35;;;;;;;9.02;3.97;;;16.20;68.40;;;;;;5096309;28;20028;-68
2021/06/02 04:19:10;;;;;;;;;;;16.20;68.50;;;;;;5096676;28;20093;-68
2021/06/02 04:21:41;;;;;;;4.00;3.53;;;16.20;68.90;;;;;;5096119;28;19910;-68
2021/06/02 04:24:10;;;;;;;7.03;4.00;;;16.20;69.10;;;;;;5096095;28;20031;-68
2021/06/02 04:26:37;;;;;;;13.35;4.40;;;16.20;69.00;;;;;;5096049;28;20388;-68
2021/06/02 04:29:10;;;;;;;8.20;4.32;;;16.20;69.00;;;;;;5095840;28;20052;-68
2021/06/02 04:31:40;;;;;;;7.97;3.42;;;16.30;69.20;;;;;;5095962;28;20074;-67
2021/06/02 04:34:06;;;;;;;6.95;3.58;;;16.30;69.20;;;;;;5095152;28;20111;-67
2021/06/02 04:36:32;;;;;;;10.82;4.25;;;16.30;69.40;;;;;;5096008;28;20099;-67
2021/06/02 04:38:59;;;;;;;5.82;4.00;;;16.30;69.10;;;;;;5095663;28;20040;-67
2021/06/02 04:41:29;;;;;;;6.22;3.42;;;16.30;69.00;;;;;;5095710;28;20024;-67
2021/06/02 04:43:58;;;;;;;7.82;3.83;;;16.30;69.10;;;;;;5095950;28;20035;-68
2021/06/02 04:46:24;;;;;;;5.15;3.47;;;16.30;69.00;;;;;;5095636;28;20383;-68
2021/06/02 04:48:50;;;;;;;6.20;3.55;;;16.40;69.10;;;;;;5095478;28;20024;-68
2021/06/02 04:52:07;;;;;;;6.43;3.85;;;16.40;69.30;;;;;;5095368;28;20024;-67
2021/06/02 04:54:55;;;;;;;8.60;3.72;;;16.40;69.50;;;;;;5094807;28;20488;-70
2021/06/02 04:57:39;;;;;;;8.02;3.58;;;16.40;70.10;;;;;;5095657;28;20028;-67
2021/06/02 05:00:35;;;;;;;8.23;3.60;;;16.50;70.40;;;;;;5095306;28;20032;-67
2021/06/02 05:03:22;;;;;;;9.23;4.32;;;16.50;70.20;;;;;;5095436;28;20374;-67
2021/06/02 05:06:25;;;;;;;6.65;3.10;;;16.50;69.40;;;;;;5095260;28;20024;-67
2021/06/02 05:08:54;;;;;;;6.50;3.38;;;16.60;68.60;;;;;;5095053;28;20060;-67
2021/06/02 05:11:38;;;;;;;5.90;2.92;;;16.60;68.10;;;;;;5095120;28;20038;-67
2021/06/02 05:14:12;;;;;;;6.50;3.08;;;16.70;67.70;;;;;;5095184;28;20024;-67
2021/06/02 05:17:02;;;;;;;9.05;3.10;;;16.80;67.70;;;;;;5095236;28;20073;-67
2021/06/02 05:22:37;;;;;;;4.97;3.10;;;16.90;66.90;;;;;;5094854;28;20024;-67
2021/06/02 05:25:24;;;;;;;5.60;3.15;;;16.90;66.50;;;;;;5094973;28;20121;-67
2021/06/02 05:27:55;;;;;;;10.93;3.20;;;17.00;66.10;;;;;;5094730;28;20036;-67
2021/06/02 05:30:39;;;;;;;10.45;4.03;;;17.00;65.70;;;;;;5094734;28;20500;-68
2021/06/02 05:33:37;;;;;;;4.57;2.78;;;17.10;65.40;;;;;;5094856;28;20024;-67
2021/06/02 05:36:44;;;;;;;6.85;3.90;;;17.10;65.50;;;;;;5049644;28;20081;-67
2021/06/02 05:39:33;;;;;;;7.50;3.38;;;17.20;67.20;;;;;;5056058;28;20044;-68
2021/06/02 05:42:15;;;;;;;7.28;3.70;;;17.20;67.70;;;;;;5094720;28;20047;-69
2021/06/02 05:44:59;;;;;;;13.15;3.88;;;17.30;68.50;;;;;;5095630;28;20073;-67
2021/06/02 05:47:43;;;;;;;7.82;3.80;;;17.30;68.90;;;;;;5094108;28;20027;-68
2021/06/02 05:50:33;;;;;;;8.43;3.38;;;17.30;68.90;;;;;;5094410;28;20030;-67
2021/06/02 05:53:05;;;;;;;4.22;3.35;;;17.40;68.30;;;;;;5094609;28;20069;-67
2021/06/02 05:55:33;;;;;;;9.33;3.47;;;17.40;68.00;;;;;;5094350;28;20055;-67
2021/06/02 05:58:24;;;;;;;9.05;3.63;;;17.40;68.30;;;;;;5094026;28;20118;-67
2021/06/02 06:01:11;;;;;;;13.73;3.65;;;17.50;68.50;;;;;;5093810;28;20036;-67
2021/06/02 06:03:58;;;;;;;6.03;3.40;;;17.50;68.60;;;;;;5094614;28;20380;-67
2021/06/02 06:07:00;;;;;;;5.63;3.08;;;17.50;68.30;;;;;;5093576;28;20177;-68
2021/06/02 06:09:54;;;;;;;6.95;2.63;;;17.60;68.00;;;;;;5093485;28;20028;-68
2021/06/02 06:12:44;;;;;;;6.95;2.85;;;17.60;66.60;;;;;;5092850;28;20028;-67
2021/06/02 06:15:09;;;;;;;15.40;3.80;;;17.70;65.40;;;;;;5093096;28;20085;-70
2021/06/02 06:18:18;;;;;;;16.98;4.00;;;17.70;65.70;;;;;;5094033;28;20020;-67
2021/06/02 06:20:58;;;;;;;5.47;2.90;;;17.80;66.80;;;;;;5093633;28;20043;-67
2021/06/02 06:23:52;;;;;;;11.45;3.85;;;17.80;66.10;;;;;;5093397;28;20016;-68
2021/06/02 06:26:49;;;;;;;8.07;3.05;;;17.90;65.30;;;;;;5093741;28;20027;-67
2021/06/02 06:29:33;;;;;;;6.30;3.70;;;17.90;64.70;;;;;;5090883;28;20048;-68
2021/06/02 06:32:00;;;;;;;4.40;2.80;;;18.00;65.00;;;;;;5092574;28;20035;-79
2021/06/02 06:34:30;;;;;;;6.88;3.78;;;18.00;65.20;;;;;;5091750;28;20464;-71
2021/06/02 06:36:58;;;;;;;7.78;3.10;;;18.10;64.80;;;;;;5093071;28;20073;-81
2021/06/02 06:39:32;;;;;;;5.93;3.10;;;18.20;64.20;;;;;;5099770;28;20063;-80
2021/06/02 06:42:00;;;;;;;7.63;2.90;;;18.20;64.10;;;;;;5113521;28;20410;-68
2021/06/02 06:44:27;;;;;;;4.45;3.00;;;18.30;64.10;;;;;;5113242;28;20430;-79
2021/06/02 06:46:55;;;;;;;4.40;3.00;;;18.40;64.00;;;;;;5104879;28;20116;-76
2021/06/02 06:49:24;;;;;;;7.18;3.00;;;18.40;63.90;;;;;;5092402;28;20028;-73
2021/06/02 06:51:54;;;;;;;4.25;2.70;;;18.50;64.10;;;;;;5093388;28;20024;-79
2021/06/02 06:54:22;;;;;;;10.00;2.80;;;18.60;63.70;;;;;;5091968;28;20131;-79
2021/06/02 06:56:48;;;;;;;7.05;2.90;;;18.60;63.20;;;;;;5104952;28;20024;-81
2021/06/02 06:59:19;;;;;;;7.57;2.78;;;18.70;63.20;;;;;;5112855;28;20034;-80
2021/06/02 07:01:46;;;;;;;8.30;3.00;;;18.70;63.10;;;;;;5113517;28;20584;-70
2021/06/02 07:04:12;;;;;;;8.48;3.10;;;18.80;62.90;;;;;;5113330;28;20494;-69
2021/06/02 07:06:38;;;;;;;14.98;3.15;;;18.90;62.50;;;;;;5113026;28;20098;-69
2021/06/02 07:09:07;;;;;;;5.55;3.13;;;19.00;62.40;;;;;;5113225;28;20428;-70
2021/06/02 07:11:40;;;;;;;9.95;3.53;;;19.00;62.00;;;;;;5113362;28;20063;-70
2021/06/02 07:14:05;;;;;;;;;;;19.10;62.20;;;;;;5113614;28;20024;-71
2021/06/02 07:16:36;;;;;;;5.57;3.15;;;19.10;61.10;;;;;;5112533;28;19908;-71
2021/06/02 07:19:03;;;;;;;6.45;2.90;;;19.10;60.70;;;;;;5111934;28;20038;-71
2021/06/02 07:21:29;;;;;;;4.22;2.60;;;19.20;60.10;;;;;;5112775;28;20019;-71
2021/06/02 07:23:56;;;;;;;7.50;2.78;;;19.20;60.30;;;;;;5112402;28;20102;-71
2021/06/02 07:26:22;;;;;;;5.68;2.97;;;19.30;61.40;;;;;;5112871;28;20016;-78
2021/06/02 07:28:48;;;;;;;5.65;2.67;;;19.30;61.40;;;;;;5112500;28;20048;-71
2021/06/02 07:31:14;;;;;;;4.68;2.90;;;19.40;61.40;;;;;;5111380;28;20030;-71
2021/06/02 07:33:40;;;;;;;3.85;2.95;;;19.40;61.20;;;;;;5113036;28;20520;-72
2021/06/02 07:36:08;;;;;;;7.60;3.25;;;19.60;61.20;;;;;;5113167;28;20106;-82
2021/06/02 07:38:33;;;;;;;9.55;2.88;;;19.60;61.10;;;;;;5112997;28;20020;-78
2021/06/02 07:40:59;;;;;;;6.68;2.90;;;19.70;60.90;;;;;;5112386;28;20043;-74
2021/06/02 07:43:25;;;;;;;4.03;2.80;;;19.80;61.10;;;;;;5111601;28;20030;-71
2021/06/02 07:45:50;;;;;;;12.63;2.42;;;19.90;60.70;;;;;;5111821;28;20153;-71
2021/06/02 07:48:16;;;;;;;8.43;2.72;;;20.00;59.60;;;;;;5111416;28;20031;-71
2021/06/02 07:50:42;;;;;;;4.57;2.60;;;20.00;58.60;;;;;;5112164;28;20019;-71
2021/06/02 07:53:08;;;;;;;7.68;2.67;;;20.10;58.90;;;;;;5112609;28;20437;-71
2021/06/02 07:55:34;;;;;;;5.95;2.90;;;20.10;58.80;;;;;;5112809;28;20024;-71
2021/06/02 07:58:00;;;;;;;5.65;3.13;;;20.20;58.40;;;;;;5112663;28;20024;-71
2021/06/02 08:00:26;;;;;;;4.80;2.55;;;20.20;58.80;;;;;;5113024;28;20488;-71
2021/06/02 08:02:52;;;;;;;4.57;2.47;;;20.30;59.10;;;;;;5112707;28;20024;-71
2021/06/02 08:05:18;;;;;;;5.93;2.90;;;20.40;57.70;;;;;;5112906;28;20193;-71
2021/06/02 08:07:45;;;;;;;5.65;2.67;;;20.50;56.40;;;;;;5113355;28;20479;-71
2021/06/02 08:10:12;;;;;;;4.18;2.70;;;20.50;55.40;;;;;;5116081;28;20398;-71
2021/06/02 08:12:38;;;;;;;5.55;2.47;;;20.50;55.40;;;;;;5116733;28;20023;-71
2021/06/02 08:15:07;;;;;;;5.53;2.75;;;20.60;56.30;;;;;;5116715;28;20020;-71
2021/06/02 08:17:34;;;;;;;5.78;2.58;;;20.70;56.90;;;;;;5116640;28;20035;-71
2021/06/02 08:20:00;;;;;;;4.47;2.75;;;20.70;56.40;;;;;;5116502;28;20031;-72
2021/06/02 08:22:26;;;;;;;6.95;3.13;;;20.90;56.20;;;;;;5116258;28;20047;-71
2021/06/02 08:24:51;;;;;;;12.25;3.03;;;20.90;56.30;;;;;;5116639;28;20050;-71
2021/06/02 08:27:17;;;;;;;9.50;2.90;;;21.00;54.90;;;;;;5116489;28;20027;-72
2021/06/02 08:29:43;;;;;;;8.00;2.70;;;21.00;55.80;;;;;;5116912;28;20051;-71
2021/06/02 08:32:09;;;;;;;9.60;3.42;;;21.10;55.90;;;;;;5116380;28;20057;-71
2021/06/02 08:34:36;;;;;;;5.70;3.15;;;21.20;56.80;;;;;;5115973;28;20028;-71
2021/06/02 08:37:05;;;;;;;7.57;5.00;;;21.30;56.70;;;;;;5097969;28;20019;-71
2021/06/02 08:39:30;;;;;;;6.57;5.13;;;21.40;56.60;;;;;;5116053;28;20032;-71
2021/06/02 08:41:56;;;;;;;11.23;7.45;;;21.50;54.70;;;;;;5116324;28;20028;-71
2021/06/02 08:44:22;;;;;;;11.18;3.28;;;21.60;54.60;;;;;;5116166;28;20378;-72
2021/06/02 08:46:48;;;;;;;4.68;3.08;;;21.70;53.60;;;;;;5115932;28;20073;-71
2021/06/02 08:49:16;;;;;;;5.70;2.78;;;21.70;53.00;;;;;;5116101;28;20026;-71
2021/06/02 08:51:42;;;;;;;11.63;6.38;;;21.80;52.40;;;;;;5116451;28;20374;-71
2021/06/02 08:54:08;;;;;;;10.93;4.50;;;21.90;52.80;;;;;;5115576;28;20018;-71
2021/06/02 08:56:43;;;;;;;7.07;3.70;;;22.00;53.00;;;;;;5115882;28;20360;-71
2021/06/02 08:59:10;;;;;;;6.35;3.60;;;22.10;53.00;;;;;;5115597;28;20027;-71
2021/06/02 09:01:36;;;;;;;6.13;3.50;;;22.20;52.50;;;;;;5115949;28;20031;-71
2021/06/02 09:04:05;;;;;;;21.23;13.18;;;22.30;51.90;;;;;;5115729;28;20356;-71
2021/06/02 09:06:32;;;;;;;17.25;12.90;;;22.30;52.40;;;;;;5116005;28;20038;-71
2021/06/02 09:09:01;;;;;;;10.43;2.95;;;22.40;52.50;;;;;;5115569;28;20023;-72
2021/06/02 09:11:27;;;;;;;7.60;3.45;;;22.50;52.40;;;;;;5115644;28;20051;-72
2021/06/02 09:13:53;;;;;;;7.85;2.70;;;22.60;51.70;;;;;;5115266;28;20021;-71
2021/06/02 09:16:23;;;;;;;11.68;3.00;;;22.60;51.40;;;;;;5115324;28;20034;-71
2021/06/02 09:18:57;;;;;;;11.02;3.20;;;22.70;50.70;;;;;;5115362;28;20102;-71
2021/06/02 09:21:23;;;;;;;10.38;3.35;;;22.70;51.10;;;;;;5115049;28;20028;-71
2021/06/02 09:23:51;;;;;;;6.00;2.80;;;22.70;51.50;;;;;;5115303;28;20076;-71
2021/06/02 09:26:25;;;;;;;9.20;3.00;;;22.80;51.80;;;;;;5115074;28;20028;-71
2021/06/02 09:28:59;;;;;;;6.05;3.13;;;22.90;52.40;;;;;;5115165;28;20050;-71
2021/06/02 09:31:28;;;;;;;6.28;3.08;;;23.00;52.00;;;;;;5115304;28;20015;-71
2021/06/02 09:33:56;;;;;;;5.35;2.72;;;23.10;50.40;;;;;;5115327;28;20074;-71
2021/06/02 09:36:29;;;;;;;4.15;2.63;;;23.20;50.70;;;;;;5115267;28;20067;-71
2021/06/02 09:38:58;;;;;;;8.25;2.58;;;23.10;50.50;;;;;;5114903;28;20486;-71
2021/06/02 09:41:24;;;;;;;4.97;2.53;;;23.20;50.70;;;;;;5114999;28;20030;-71
2021/06/02 09:43:50;;;;;;;7.10;2.85;;;23.20;48.70;;;;;;5114924;28;20416;-71
2021/06/02 09:46:16;;;;;;;6.43;3.00;;;23.10;49.30;;;;;;5114688;28;20029;-72
2021/06/02 09:48:48;;;;;;;8.43;2.60;;;23.20;50.50;;;;;;5114801;28;20023;-71
2021/06/02 09:51:32;;;;;;;4.65;2.40;;;23.30;50.10;;;;;;5114916;28;20019;-71
2021/06/02 09:53:59;;;;;;;5.45;2.63;;;23.50;50.80;;;;;;5115057;28;20031;-71
2021/06/02 09:56:44;;;;;;;9.10;2.50;;;23.50;50.00;;;;;;5115682;28;20008;-71
2021/06/02 09:59:12;;;;;;;8.75;2.92;;;23.70;49.70;;;;;;5114518;28;20031;-71
2021/06/02 10:01:58;;;;;;;3.17;2.33;;;23.70;50.00;;;;;;5114803;28;20038;-71
2021/06/02 10:04:35;;;;;;;6.20;2.35;;;23.70;47.90;;;;;;5114483;28;20023;-72
2021/06/02 10:07:02;;;;;;;4.93;2.38;;;23.80;47.80;;;;;;5114587;28;20063;-71
2021/06/02 10:09:32;;;;;;;4.53;2.10;;;23.80;47.50;;;;;;5114313;28;20024;-71
2021/06/02 10:12:08;;;;;;;3.47;2.20;;;23.90;47.30;;;;;;5114306;28;20475;-71
2021/06/02 10:14:36;;;;;;;6.15;1.92;;;24.00;46.30;;;;;;5114395;28;20031;-71
2021/06/02 10:17:02;;;;;;;5.80;2.78;;;24.10;46.50;;;;;;5114449;28;20386;-72
2021/06/02 10:19:42;;;;;;;2.90;2.25;;;24.20;47.70;;;;;;5113210;28;20107;-71
2021/06/02 10:22:19;;;;;;;4.93;2.20;;;24.30;46.60;;;;;;5112974;28;20102;-72
2021/06/02 10:24:50;;;;;;;3.65;2.40;;;24.40;44.00;;;;;;5111784;28;20027;-77
2021/06/02 10:27:18;;;;;;;5.93;2.55;;;24.40;43.30;;;;;;5099808;28;20028;-78
2021/06/02 10:29:44;;;;;;;5.72;2.10;;;24.40;43.10;;;;;;5103120;28;20070;-70
2021/06/02 10:32:09;;;;;;;5.68;2.25;;;24.50;43.80;;;;;;5108834;28;20063;-71
2021/06/02 10:34:35;;;;;;;2.53;2.00;;;24.60;43.10;;;;;;5103480;28;20472;-71
2021/06/02 10:37:01;;;;;;;5.50;2.58;;;24.60;41.80;;;;;;5102592;28;20098;-71
2021/06/02 10:39:30;;;;;;;5.60;2.30;;;24.60;41.80;;;;;;5105672;28;20035;-71
2021/06/02 10:42:01;;;;;;;6.15;2.10;;;24.70;43.50;;;;;;5105583;28;20019;-71
2021/06/02 10:44:33;;;;;;;5.20;2.28;;;24.80;44.40;;;;;;5105877;28;20023;-71
2021/06/02 10:47:00;;;;;;;3.63;2.05;;;24.90;42.90;;;;;;5099861;28;20044;-69
2021/06/02 10:49:32;;;;;;;5.25;2.08;;;24.90;42.80;;;;;;5097642;28;20080;-78
2021/06/02 10:51:58;;;;;;;8.43;2.10;;;25.00;45.60;;;;;;5108520;28;20028;-69
2021/06/02 10:54:37;;;;;;;4.97;1.73;;;25.10;43.20;;;;;;5112603;28;20027;-68
2021/06/02 10:57:07;;;;;;;3.58;1.98;;;25.20;43.70;;;;;;5100449;28;20028;-69
2021/06/02 10:59:56;;;;;;;4.13;2.30;;;25.20;43.40;;;;;;5094478;28;20460;-69
2021/06/02 11:02:29;;;;;;;4.35;2.05;;;25.20;42.80;;;;;;5102350;28;20028;-69
2021/06/02 11:04:55;;;;;;;5.13;1.90;;;25.30;41.90;;;;;;5113183;28;20387;-69
2021/06/02 11:07:21;;;;;;;2.83;1.92;;;25.40;41.40;;;;;;5112774;28;20020;-71
2021/06/02 11:10:01;;;;;;;4.38;1.88;;;25.50;39.70;;;;;;5112925;28;20024;-71
2021/06/02 11:12:47;;;;;;;2.22;1.60;;;25.50;40.90;;;;;;5112886;28;20518;-71
2021/06/02 11:15:31;;;;;;;4.88;1.80;;;25.50;42.70;;;;;;5112345;28;20027;-70
2021/06/02 11:18:09;;;;;;;4.22;1.80;;;25.50;42.00;;;;;;5093234;28;20369;-76
2021/06/02 11:21:06;;;;;;;3.67;1.90;;;25.40;42.50;;;;;;5111878;28;20391;-70
2021/06/02 11:23:34;;;;;;;10.70;2.00;;;25.50;41.90;;;;;;5111866;28;20028;-70
2021/06/02 11:26:25;;;;;;;6.50;2.00;;;25.40;43.00;;;;;;5113497;28;20024;-69
2021/06/02 11:28:51;;;;;;;2.72;1.88;;;25.40;40.90;;;;;;5112236;28;20633;-70
2021/06/02 11:31:31;;;;;;;4.80;1.90;;;25.40;40.90;;;;;;5094453;28;20038;-71
2021/06/02 11:34:28;;;;;;;3.05;1.90;;;25.40;42.50;;;;;;5112974;28;20103;-70
2021/06/02 11:37:02;;;;;;;2.83;2.30;;;25.30;43.20;;;;;;5113245;28;20057;-70
2021/06/02 11:39:28;;;;;;;8.60;3.33;;;25.40;42.50;;;;;;5113040;28;20488;-70
2021/06/02 11:41:58;;;;;;;6.03;2.70;;;25.40;42.90;;;;;;5113215;28;20031;-69
2021/06/02 11:44:32;;;;;;;3.45;2.08;;;25.40;42.70;;;;;;5115321;28;20387;-69
2021/06/02 11:46:57;;;;;;;5.07;2.17;;;25.40;42.70;;;;;;5117340;28;20024;-70
2021/06/02 11:49:28;;;;;;;10.07;2.58;;;25.40;43.90;;;;;;5117014;28;20039;-70
2021/06/02 11:52:04;;;;;;;5.90;2.33;;;25.40;41.50;;;;;;5117496;28;20035;-69
2021/06/02 11:54:48;;;;;;;6.90;2.47;;;25.30;42.80;;;;;;5116575;28;20019;-69
2021/06/02 11:57:22;;;;;;;4.60;2.40;;;25.20;42.80;;;;;;5116723;28;20051;-69
2021/06/02 11:59:48;;;;;;;4.43;2.08;;;25.10;42.50;;;;;;5115595;28;20031;-69
2021/06/02 12:02:14;;;;;;;3.90;2.15;;;25.00;42.30;;;;;;5116245;28;20360;-73
2021/06/02 12:04:40;;;;;;;11.45;2.15;;;24.90;41.90;;;;;;5116671;28;20023;-78
2021/06/02 12:07:26;;;;;;;4.57;1.90;;;24.90;43.70;;;;;;5116649;28;20077;-69
2021/06/02 12:09:54;;;;;;;3.47;2.00;;;24.90;41.90;;;;;;5116397;28;20020;-80
2021/06/02 12:12:22;;;;;;;4.65;2.17;;;24.90;42.70;;;;;;5116350;28;20080;-69
2021/06/02 12:14:52;;;;;;;7.55;2.00;;;25.00;42.80;;;;;;5116382;28;20471;-81
2021/06/02 12:17:18;;;;;;;4.38;2.10;;;24.90;42.30;;;;;;5116266;28;20063;-69
2021/06/02 12:19:46;;;;;;;2.80;1.90;;;24.90;43.80;;;;;;5116177;28;20035;-69
2021/06/02 12:22:19;;;;;;;6.18;1.90;;;24.90;39.60;;;;;;5115339;28;20019;-69
2021/06/02 12:25:00;;;;;;;6.57;2.10;;;24.80;40.80;;;;;;5116537;28;20404;-69
2021/06/02 12:27:25;;;;;;;2.80;1.88;;;24.80;41.00;;;;;;5116204;28;20098;-72
2021/06/02 12:30:05;;;;;;;3.13;2.00;;;24.80;40.30;;;;;;5116006;28;20082;-69
2021/06/02 12:32:55;;;;;;;4.82;1.80;;;24.70;41.40;;;;;;5115728;28;20032;-72
2021/06/02 12:35:32;;;;;;;4.47;1.70;;;24.80;42.30;;;;;;5114933;28;20031;-72
2021/06/02 12:38:16;;;;;;;3.88;2.10;;;24.80;42.10;;;;;;5115381;28;20024;-68
2021/06/02 12:40:48;;;;;;;6.93;1.90;;;24.80;40.80;;;;;;5096454;28;20398;-75
2021/06/02 12:43:25;;;;;;;3.45;1.75;;;24.80;40.20;;;;;;5115008;28;20031;-78
2021/06/02 12:46:06;;;;;;;4.35;2.42;;;24.80;41.30;;;;;;5095889;28;20024;-69
2021/06/02 12:48:34;;;;;;;4.45;1.90;;;24.80;40.30;;;;;;5115489;28;20106;-71
2021/06/02 12:51:02;;;;;;;3.65;1.80;;;24.80;40.80;;;;;;5115315;28;20416;-69
2021/06/02 12:53:36;;;;;;;3.58;1.80;;;24.80;41.20;;;;;;5096919;28;20066;-80
2021/06/02 12:56:04;;;;;;;2.90;1.70;;;24.90;41.10;;;;;;5113530;28;20039;-69
2021/06/02 12:58:35;;;;;;;3.08;1.80;;;24.90;39.80;;;;;;5114484;28;20484;-69
2021/06/02 13:01:09;;;;;;;3.28;1.83;;;24.90;39.60;;;;;;5114871;28;20046;-70
2021/06/02 13:03:40;;;;;;;4.72;1.88;;;24.90;39.50;;;;;;5115193;28;20024;-81
2021/06/02 13:06:07;;;;;;;2.10;1.70;;;24.90;39.80;;;;;;5115177;28;20026;-80
2021/06/02 13:08:41;;;;;;;1.83;1.52;;;24.90;38.60;;;;;;5115320;28;20024;-68
2021/06/02 13:11:09;;;;;;;2.85;1.98;;;24.80;38.50;;;;;;5096719;28;20016;-69
2021/06/02 13:13:35;;;;;;;4.45;1.95;;;24.80;38.70;;;;;;5115069;28;20032;-79
2021/06/02 13:16:04;;;;;;;6.78;1.60;;;24.70;38.70;;;;;;5114909;28;20387;-68
2021/06/02 13:18:33;;;;;;;3.28;1.70;;;24.60;38.60;;;;;;5114502;28;20020;-81
2021/06/02 13:21:11;;;;;;;3.85;1.83;;;24.70;40.30;;;;;;5114176;28;20038;-69
2021/06/02 13:23:37;;;;;;;5.60;2.00;;;24.70;40.00;;;;;;5114504;28;20486;-78
2021/06/02 13:26:12;;;;;;;3.92;1.70;;;24.80;38.10;;;;;;5112993;28;20111;-68
2021/06/02 13:28:44;;;;;;;5.18;1.75;;;24.80;39.10;;;;;;5113472;28;20083;-68